sensor_id;sensor_type;location;lat;lon;timestamp;P1;durP1;ratioP1;P2;durP2;ratioP2
239;SDS011;104;53.590;10.004;2023-10-13T04:55:13;41.27;;;21.40;;
239;SDS011;104;53.590;10.004;2023-10-13T04:57:59;38.93;;;20.10;;
239;SDS011;104;53.590;10.004;2023-10-13T05:00:36;40.67;;;21.30;;
239;SDS011;104;53.590;10.004;2023-10-13T05:03:42;46.23;;;21.20;;
239;SDS011;104;53.590;10.004;2023-10-13T05:06:46;44.97;;;19.50;;
239;SDS011;104;53.590;10.004;2023-10-13T05:09:33;40.07;;;21.03;;
239;SDS011;104;53.590;10.004;2023-10-13T05:12:25;42.87;;;21.50;;
239;SDS011;104;53.590;10.004;2023-10-13T05:15:09;38.80;;;20.83;;
239;SDS011;104;53.590;10.004;2023-10-13T05:17:54;40.50;;;21.00;;
239;SDS011;104;53.590;10.004;2023-10-13T05:20:39;38.40;;;20.30;;
239;SDS011;104;53.590;10.004;2023-10-13T05:23:24;41.40;;;20.77;;
239;SDS011;104;53.590;10.004;2023-10-13T05:26:09;46.20;;;20.37;;
239;SDS011;104;53.590;10.004;2023-10-13T05:28:55;38.40;;;19.53;;
239;SDS011;104;53.590;10.004;2023-10-13T05:31:39;43.87;;;20.30;;
239;SDS011;104;53.590;10.004;2023-10-13T05:34:24;41.80;;;20.20;;
239;SDS011;104;53.590;10.004;2023-10-13T05:37:09;38.90;;;20.70;;
239;SDS011;104;53.590;10.004;2023-10-13T05:39:54;39.00;;;20.57;;
239;SDS011;104;53.590;10.004;2023-10-13T05:42:39;43.50;;;20.30;;
239;SDS011;104;53.590;10.004;2023-10-13T05:45:25;38.30;;;21.17;;
239;SDS011;104;53.590;10.004;2023-10-13T05:48:23;31.67;;;19.30;;
239;SDS011;104;53.590;10.004;2023-10-13T05:51:07;34.50;;;19.47;;
239;SDS011;104;53.590;10.004;2023-10-13T05:54:01;34.90;;;19.00;;
239;SDS011;104;53.590;10.004;2023-10-13T05:56:46;36.70;;;20.30;;
239;SDS011;104;53.590;10.004;2023-10-13T05:59:32;46.03;;;21.10;;
239;SDS011;104;53.590;10.004;2023-10-13T06:02:19;40.63;;;20.53;;
239;SDS011;104;53.590;10.004;2023-10-13T06:05:16;41.63;;;20.47;;
239;SDS011;104;53.590;10.004;2023-10-13T06:08:00;37.30;;;20.43;;
239;SDS011;104;53.590;10.004;2023-10-13T06:10:47;37.93;;;18.93;;
239;SDS011;104;53.590;10.004;2023-10-13T06:13:32;30.23;;;18.70;;
239;SDS011;104;53.590;10.004;2023-10-13T06:16:17;31.40;;;19.07;;
239;SDS011;104;53.590;10.004;2023-10-13T06:19:03;47.23;;;17.90;;
239;SDS011;104;53.590;10.004;2023-10-13T06:21:48;38.30;;;18.13;;
239;SDS011;104;53.590;10.004;2023-10-13T06:24:33;40.27;;;20.57;;
239;SDS011;104;53.590;10.004;2023-10-13T06:27:18;34.93;;;19.93;;
239;SDS011;104;53.590;10.004;2023-10-13T06:30:03;29.43;;;18.53;;
239;SDS011;104;53.590;10.004;2023-10-13T06:32:32;30.50;;;18.67;;
239;SDS011;104;53.590;10.004;2023-10-13T06:35:07;40.90;;;19.70;;
239;SDS011;104;53.590;10.004;2023-10-13T08:11:20;23.60;;;16.97;;
239;SDS011;104;53.590;10.004;2023-10-13T08:13:59;34.03;;;15.97;;
239;SDS011;104;53.590;10.004;2023-10-13T08:16:36;33.40;;;16.90;;
239;SDS011;104;53.590;10.004;2023-10-13T08:19:18;30.87;;;16.57;;
239;SDS011;104;53.590;10.004;2023-10-13T08:21:46;23.10;;;14.87;;
239;SDS011;104;53.590;10.004;2023-10-13T08:24:17;26.00;;;15.77;;
239;SDS011;104;53.590;10.004;2023-10-13T08:26:52;39.07;;;15.50;;
239;SDS011;104;53.590;10.004;2023-10-13T08:29:37;25.70;;;15.63;;
239;SDS011;104;53.590;10.004;2023-10-13T08:32:30;29.67;;;15.27;;
239;SDS011;104;53.590;10.004;2023-10-13T08:35:12;23.27;;;14.30;;
239;SDS011;104;53.590;10.004;2023-10-13T08:37:58;28.80;;;14.77;;
239;SDS011;104;53.590;10.004;2023-10-13T08:40:30;34.90;;;14.03;;
239;SDS011;104;53.590;10.004;2023-10-13T08:43:33;21.47;;;14.07;;
239;SDS011;104;53.590;10.004;2023-10-13T08:46:08;22.30;;;13.70;;
239;SDS011;104;53.590;10.004;2023-10-13T08:48:50;26.17;;;12.87;;
239;SDS011;104;53.590;10.004;2023-10-13T08:51:18;20.27;;;12.93;;
239;SDS011;104;53.590;10.004;2023-10-13T08:54:03;28.07;;;11.53;;
239;SDS011;104;53.590;10.004;2023-10-13T08:56:43;26.10;;;11.90;;
239;SDS011;104;53.590;10.004;2023-10-13T08:59:21;36.87;;;12.13;;
239;SDS011;104;53.590;10.004;2023-10-13T09:01:48;23.03;;;11.77;;
239;SDS011;104;53.590;10.004;2023-10-13T09:04:25;33.50;;;11.50;;
239;SDS011;104;53.590;10.004;2023-10-13T09:07:00;30.33;;;11.30;;
